sensor_id;sensor_type;location;lat;lon;timestamp;P1;durP1;ratioP1;P2;durP2;ratioP2
4057;SDS011;2044;48.692;9.020;2023-04-25T00:02:24;2.20;;;1.57;;
4057;SDS011;2044;48.692;9.020;2023-04-25T00:04:50;2.13;;;1.30;;
4057;SDS011;2044;48.692;9.020;2023-04-25T00:07:18;1.40;;;1.30;;
4057;SDS011;2044;48.692;9.020;2023-04-25T00:09:45;4.00;;;1.60;;
4057;SDS011;2044;48.692;9.020;2023-04-25T00:12:12;1.37;;;1.13;;
4057;SDS011;2044;48.692;9.020;2023-04-25T00:14:39;1.97;;;1.40;;
4057;SDS011;2044;48.692;9.020;2023-04-25T00:17:05;4.87;;;1.50;;
4057;SDS011;2044;48.692;9.020;2023-04-25T00:19:32;0.90;;;0.90;;
4057;SDS011;2044;48.692;9.020;2023-04-25T00:21:59;4.67;;;1.20;;
4057;SDS011;2044;48.692;9.020;2023-04-25T00:24:27;1.47;;;1.37;;
4057;SDS011;2044;48.692;9.020;2023-04-25T00:26:54;1.23;;;1.03;;
4057;SDS011;2044;48.692;9.020;2023-04-25T00:29:21;1.90;;;1.33;;
4057;SDS011;2044;48.692;9.020;2023-04-25T00:31:48;1.90;;;0.70;;
4057;SDS011;2044;48.692;9.020;2023-04-25T00:34:14;3.37;;;1.50;;
4057;SDS011;2044;48.692;9.020;2023-04-25T00:36:41;1.53;;;0.90;;
4057;SDS011;2044;48.692;9.020;2023-04-25T00:39:08;2.07;;;1.50;;
4057;SDS011;2044;48.692;9.020;2023-04-25T00:41:36;1.60;;;1.30;;
4057;SDS011;2044;48.692;9.020;2023-04-25T00:44:03;1.20;;;0.93;;
4057;SDS011;2044;48.692;9.020;2023-04-25T00:46:31;1.20;;;1.10;;
4057;SDS011;2044;48.692;9.020;2023-04-25T00:48:58;1.53;;;1.43;;
4057;SDS011;2044;48.692;9.020;2023-04-25T00:51:25;6.40;;;1.60;;
4057;SDS011;2044;48.692;9.020;2023-04-25T00:53:52;1.73;;;1.20;;
4057;SDS011;2044;48.692;9.020;2023-04-25T00:56:19;1.37;;;1.20;;
4057;SDS011;2044;48.692;9.020;2023-04-25T00:58:48;2.03;;;1.17;;
4057;SDS011;2044;48.692;9.020;2023-04-25T01:01:19;1.87;;;1.33;;
4057;SDS011;2044;48.692;9.020;2023-04-25T01:03:46;1.60;;;1.30;;
4057;SDS011;2044;48.692;9.020;2023-04-25T01:06:15;2.20;;;1.27;;
4057;SDS011;2044;48.692;9.020;2023-04-25T01:08:42;2.07;;;0.97;;
4057;SDS011;2044;48.692;9.020;2023-04-25T01:11:09;1.40;;;1.23;;
4057;SDS011;2044;48.692;9.020;2023-04-25T01:13:35;2.30;;;1.67;;
4057;SDS011;2044;48.692;9.020;2023-04-25T01:16:04;1.97;;;1.40;;
4057;SDS011;2044;48.692;9.020;2023-04-25T01:18:31;4.17;;;1.30;;
4057;SDS011;2044;48.692;9.020;2023-04-25T01:21:02;1.43;;;1.07;;
4057;SDS011;2044;48.692;9.020;2023-04-25T01:23:33;3.73;;;1.37;;
4057;SDS011;2044;48.692;9.020;2023-04-25T01:26:00;1.77;;;1.20;;
4057;SDS011;2044;48.692;9.020;2023-04-25T01:28:27;1.40;;;1.10;;
4057;SDS011;2044;48.692;9.020;2023-04-25T01:30:54;1.60;;;1.50;;
4057;SDS011;2044;48.692;9.020;2023-04-25T01:33:22;2.07;;;1.53;;
4057;SDS011;2044;48.692;9.020;2023-04-25T01:35:49;1.57;;;1.13;;
4057;SDS011;2044;48.692;9.020;2023-04-25T01:38:17;1.77;;;0.93;;
4057;SDS011;2044;48.692;9.020;2023-04-25T01:40:44;1.53;;;0.80;;
4057;SDS011;2044;48.692;9.020;2023-04-25T01:43:12;1.60;;;1.10;;
4057;SDS011;2044;48.692;9.020;2023-04-25T01:45:39;1.37;;;0.90;;
4057;SDS011;2044;48.692;9.020;2023-04-25T01:48:06;1.17;;;1.03;;
4057;SDS011;2044;48.692;9.020;2023-04-25T01:50:33;1.30;;;0.90;;
4057;SDS011;2044;48.692;9.020;2023-04-25T01:52:59;1.83;;;1.20;;
4057;SDS011;2044;48.692;9.020;2023-04-25T01:55:28;1.67;;;1.03;;
4057;SDS011;2044;48.692;9.020;2023-04-25T01:57:55;3.10;;;1.20;;
4057;SDS011;2044;48.692;9.020;2023-04-25T02:00:22;1.43;;;1.00;;
4057;SDS011;2044;48.692;9.020;2023-04-25T02:02:49;2.00;;;1.10;;
4057;SDS011;2044;48.692;9.020;2023-04-25T02:05:18;1.30;;;0.90;;
4057;SDS011;2044;48.692;9.020;2023-04-25T02:07:45;2.20;;;1.57;;
4057;SDS011;2044;48.692;9.020;2023-04-25T02:10:12;2.00;;;1.30;;
4057;SDS011;2044;48.692;9.020;2023-04-25T02:12:40;1.90;;;0.90;;
4057;SDS011;2044;48.692;9.020;2023-04-25T02:15:07;1.40;;;1.13;;
4057;SDS011;2044;48.692;9.020;2023-04-25T02:17:34;1.30;;;1.20;;
4057;SDS011;2044;48.692;9.020;2023-04-25T02:20:00;0.90;;;0.70;;
4057;SDS011;2044;48.692;9.020;2023-04-25T02:22:28;1.67;;;1.23;;
4057;SDS011;2044;48.692;9.020;2023-04-25T02:24:55;1.43;;;1.10;;
4057;SDS011;2044;48.692;9.020;2023-04-25T02:27:22;1.50;;;1.17;;
4057;SDS011;2044;48.692;9.020;2023-04-25T02:29:51;1.70;;;0.97;;
4057;SDS011;2044;48.692;9.020;2023-04-25T02:32:17;1.60;;;1.30;;
4057;SDS011;2044;48.692;9.020;2023-04-25T02:34:44;1.43;;;0.90;;
4057;SDS011;2044;48.692;9.020;2023-04-25T02:37:11;1.90;;;1.27;;
4057;SDS011;2044;48.692;9.020;2023-04-25T02:39:38;2.00;;;1.30;;
4057;SDS011;2044;48.692;9.020;2023-04-25T02:42:05;3.67;;;1.40;;
4057;SDS011;2044;48.692;9.020;2023-04-25T02:44:31;2.20;;;1.17;;
4057;SDS011;2044;48.692;9.020;2023-04-25T02:46:59;2.07;;;1.83;;
4057;SDS011;2044;48.692;9.020;2023-04-25T02:49:26;2.20;;;1.10;;
4057;SDS011;2044;48.692;9.020;2023-04-25T02:51:53;1.90;;;1.10;;
4057;SDS011;2044;48.692;9.020;2023-04-25T02:54:20;2.20;;;1.00;;
4057;SDS011;2044;48.692;9.020;2023-04-25T02:56:46;1.97;;;1.00;;
4057;SDS011;2044;48.692;9.020;2023-04-25T02:59:13;1.97;;;1.23;;
4057;SDS011;2044;48.692;9.020;2023-04-25T03:01:40;2.33;;;1.20;;
4057;SDS011;2044;48.692;9.020;2023-04-25T03:04:08;2.20;;;0.93;;
4057;SDS011;2044;48.692;9.020;2023-04-25T03:06:34;1.70;;;1.30;;
4057;SDS011;2044;48.692;9.020;2023-04-25T03:09:01;1.37;;;1.10;;
4057;SDS011;2044;48.692;9.020;2023-04-25T03:11:29;2.87;;;1.70;;
4057;SDS011;2044;48.692;9.020;2023-04-25T03:13:55;3.50;;;1.27;;
4057;SDS011;2044;48.692;9.020;2023-04-25T03:16:22;3.83;;;1.30;;
4057;SDS011;2044;48.692;9.020;2023-04-25T03:18:49;1.20;;;1.10;;
4057;SDS011;2044;48.692;9.020;2023-04-25T03:21:17;4.40;;;1.47;;
4057;SDS011;2044;48.692;9.020;2023-04-25T03:23:44;2.87;;;1.40;;
4057;SDS011;2044;48.692;9.020;2023-04-25T03:26:10;2.33;;;1.47;;
4057;SDS011;2044;48.692;9.020;2023-04-25T03:28:37;1.70;;;1.50;;
4057;SDS011;2044;48.692;9.020;2023-04-25T03:31:05;3.00;;;2.23;;
4057;SDS011;2044;48.692;9.020;2023-04-25T03:33:31;2.20;;;1.10;;
4057;SDS011;2044;48.692;9.020;2023-04-25T03:35:58;2.40;;;1.43;;
4057;SDS011;2044;48.692;9.020;2023-04-25T03:38:26;2.23;;;1.17;;
4057;SDS011;2044;48.692;9.020;2023-04-25T03:40:53;8.43;;;1.37;;
4057;SDS011;2044;48.692;9.020;2023-04-25T03:43:21;2.80;;;1.23;;
4057;SDS011;2044;48.692;9.020;2023-04-25T03:45:47;1.43;;;0.87;;
4057;SDS011;2044;48.692;9.020;2023-04-25T03:48:14;1.73;;;1.40;;
4057;SDS011;2044;48.692;9.020;2023-04-25T03:50:41;3.13;;;1.57;;
4057;SDS011;2044;48.692;9.020;2023-04-25T03:53:07;1.73;;;1.00;;
4057;SDS011;2044;48.692;9.020;2023-04-25T03:55:35;2.80;;;1.83;;
4057;SDS011;2044;48.692;9.020;2023-04-25T03:58:02;7.27;;;1.60;;
4057;SDS011;2044;48.692;9.020;2023-04-25T04:00:29;2.87;;;1.90;;
4057;SDS011;2044;48.692;9.020;2023-04-25T04:02:56;1.90;;;1.57;;
4057;SDS011;2044;48.692;9.020;2023-04-25T04:05:23;3.13;;;1.50;;
4057;SDS011;2044;48.692;9.020;2023-04-25T04:07:50;3.50;;;2.27;;
4057;SDS011;2044;48.692;9.020;2023-04-25T04:10:16;2.40;;;1.17;;
4057;SDS011;2044;48.692;9.020;2023-04-25T04:12:45;2.13;;;1.27;;
4057;SDS011;2044;48.692;9.020;2023-04-25T04:15:11;1.63;;;1.10;;
4057;SDS011;2044;48.692;9.020;2023-04-25T04:17:38;1.93;;;1.60;;
4057;SDS011;2044;48.692;9.020;2023-04-25T04:20:05;1.60;;;1.47;;
4057;SDS011;2044;48.692;9.020;2023-04-25T04:22:33;2.53;;;1.80;;
4057;SDS011;2044;48.692;9.020;2023-04-25T04:25:00;3.30;;;1.80;;
4057;SDS011;2044;48.692;9.020;2023-04-25T04:27:27;1.60;;;1.50;;
4057;SDS011;2044;48.692;9.020;2023-04-25T04:29:55;2.40;;;1.47;;
4057;SDS011;2044;48.692;9.020;2023-04-25T04:32:22;2.80;;;1.47;;
4057;SDS011;2044;48.692;9.020;2023-04-25T04:34:50;2.03;;;1.33;;
4057;SDS011;2044;48.692;9.020;2023-04-25T04:37:17;2.80;;;1.87;;
4057;SDS011;2044;48.692;9.020;2023-04-25T04:39:43;3.00;;;1.63;;
4057;SDS011;2044;48.692;9.020;2023-04-25T04:42:11;1.70;;;1.37;;
4057;SDS011;2044;48.692;9.020;2023-04-25T04:44:38;1.53;;;1.37;;
4057;SDS011;2044;48.692;9.020;2023-04-25T04:47:06;1.47;;;1.07;;
4057;SDS011;2044;48.692;9.020;2023-04-25T04:49:32;2.63;;;1.57;;
4057;SDS011;2044;48.692;9.020;2023-04-25T04:51:59;2.27;;;1.40;;
4057;SDS011;2044;48.692;9.020;2023-04-25T04:54:26;2.50;;;1.37;;
4057;SDS011;2044;48.692;9.020;2023-04-25T04:56:53;3.33;;;2.00;;
4057;SDS011;2044;48.692;9.020;2023-04-25T04:59:19;5.33;;;2.00;;
4057;SDS011;2044;48.692;9.020;2023-04-25T05:01:46;2.80;;;1.40;;
4057;SDS011;2044;48.692;9.020;2023-04-25T05:04:14;1.93;;;1.50;;
4057;SDS011;2044;48.692;9.020;2023-04-25T05:06:41;2.37;;;1.47;;
4057;SDS011;2044;48.692;9.020;2023-04-25T05:09:09;3.13;;;2.20;;
4057;SDS011;2044;48.692;9.020;2023-04-25T05:11:35;3.10;;;1.20;;
4057;SDS011;2044;48.692;9.020;2023-04-25T05:14:03;2.60;;;1.80;;
4057;SDS011;2044;48.692;9.020;2023-04-25T05:16:30;2.57;;;1.80;;
4057;SDS011;2044;48.692;9.020;2023-04-25T05:18:56;4.30;;;1.67;;
4057;SDS011;2044;48.692;9.020;2023-04-25T05:21:24;4.13;;;1.63;;
4057;SDS011;2044;48.692;9.020;2023-04-25T05:23:52;2.10;;;1.90;;
4057;SDS011;2044;48.692;9.020;2023-04-25T05:26:19;3.10;;;2.30;;
4057;SDS011;2044;48.692;9.020;2023-04-25T05:28:46;2.47;;;1.23;;
4057;SDS011;2044;48.692;9.020;2023-04-25T05:31:12;1.60;;;1.23;;
4057;SDS011;2044;48.692;9.020;2023-04-25T05:33:39;2.37;;;1.63;;
4057;SDS011;2044;48.692;9.020;2023-04-25T05:36:06;3.60;;;2.10;;
4057;SDS011;2044;48.692;9.020;2023-04-25T05:38:35;2.80;;;2.07;;
4057;SDS011;2044;48.692;9.020;2023-04-25T05:41:02;2.70;;;1.80;;
4057;SDS011;2044;48.692;9.020;2023-04-25T05:43:28;4.33;;;1.80;;
4057;SDS011;2044;48.692;9.020;2023-04-25T05:45:55;4.73;;;2.40;;
4057;SDS011;2044;48.692;9.020;2023-04-25T05:48:22;1.93;;;1.53;;
4057;SDS011;2044;48.692;9.020;2023-04-25T05:50:48;3.53;;;1.97;;
4057;SDS011;2044;48.692;9.020;2023-04-25T05:53:16;4.20;;;2.90;;
4057;SDS011;2044;48.692;9.020;2023-04-25T05:55:44;2.00;;;1.80;;
4057;SDS011;2044;48.692;9.020;2023-04-25T05:58:11;3.23;;;1.97;;
4057;SDS011;2044;48.692;9.020;2023-04-25T06:00:37;4.57;;;1.80;;
4057;SDS011;2044;48.692;9.020;2023-04-25T06:03:06;2.80;;;1.80;;
4057;SDS011;2044;48.692;9.020;2023-04-25T06:05:34;4.83;;;2.07;;
4057;SDS011;2044;48.692;9.020;2023-04-25T06:08:01;2.97;;;1.70;;
4057;SDS011;2044;48.692;9.020;2023-04-25T06:10:27;3.37;;;2.20;;
4057;SDS011;2044;48.692;9.020;2023-04-25T06:12:55;3.93;;;2.30;;
4057;SDS011;2044;48.692;9.020;2023-04-25T06:15:22;3.47;;;2.30;;
4057;SDS011;2044;48.692;9.020;2023-04-25T06:17:49;2.40;;;1.97;;
4057;SDS011;2044;48.692;9.020;2023-04-25T06:20:16;2.70;;;2.33;;
4057;SDS011;2044;48.692;9.020;2023-04-25T06:22:43;3.33;;;1.87;;
4057;SDS011;2044;48.692;9.020;2023-04-25T06:25:09;2.80;;;2.23;;
4057;SDS011;2044;48.692;9.020;2023-04-25T06:27:36;3.53;;;2.00;;
4057;SDS011;2044;48.692;9.020;2023-04-25T06:30:04;3.17;;;2.07;;
4057;SDS011;2044;48.692;9.020;2023-04-25T06:32:32;2.87;;;2.17;;
4057;SDS011;2044;48.692;9.020;2023-04-25T06:34:59;3.57;;;2.23;;
4057;SDS011;2044;48.692;9.020;2023-04-25T06:37:26;2.57;;;1.77;;
4057;SDS011;2044;48.692;9.020;2023-04-25T06:39:52;4.60;;;2.33;;
4057;SDS011;2044;48.692;9.020;2023-04-25T06:42:19;2.87;;;1.83;;
4057;SDS011;2044;48.692;9.020;2023-04-25T06:44:46;3.57;;;2.20;;
4057;SDS011;2044;48.692;9.020;2023-04-25T06:47:14;4.90;;;2.30;;
4057;SDS011;2044;48.692;9.020;2023-04-25T06:49:41;3.33;;;1.93;;
4057;SDS011;2044;48.692;9.020;2023-04-25T06:52:07;3.13;;;2.40;;
4057;SDS011;2044;48.692;9.020;2023-04-25T06:54:35;4.10;;;1.93;;
4057;SDS011;2044;48.692;9.020;2023-04-25T06:57:02;4.30;;;2.53;;
4057;SDS011;2044;48.692;9.020;2023-04-25T06:59:29;4.97;;;2.50;;
4057;SDS011;2044;48.692;9.020;2023-04-25T07:01:55;5.97;;;3.07;;
4057;SDS011;2044;48.692;9.020;2023-04-25T07:04:23;2.90;;;1.70;;
4057;SDS011;2044;48.692;9.020;2023-04-25T07:06:50;6.63;;;2.70;;
4057;SDS011;2044;48.692;9.020;2023-04-25T07:09:17;6.23;;;2.23;;
4057;SDS011;2044;48.692;9.020;2023-04-25T07:11:44;2.97;;;2.30;;
4057;SDS011;2044;48.692;9.020;2023-04-25T07:14:11;3.87;;;2.13;;
4057;SDS011;2044;48.692;9.020;2023-04-25T07:16:37;4.10;;;2.57;;
4057;SDS011;2044;48.692;9.020;2023-04-25T07:19:04;3.60;;;2.10;;
4057;SDS011;2044;48.692;9.020;2023-04-25T07:21:32;2.40;;;1.40;;
4057;SDS011;2044;48.692;9.020;2023-04-25T07:23:59;5.37;;;2.03;;
4057;SDS011;2044;48.692;9.020;2023-04-25T07:26:26;3.63;;;2.57;;
4057;SDS011;2044;48.692;9.020;2023-04-25T07:28:52;2.50;;;1.87;;
4057;SDS011;2044;48.692;9.020;2023-04-25T07:31:19;2.17;;;1.20;;
4057;SDS011;2044;48.692;9.020;2023-04-25T07:33:46;5.57;;;2.00;;
4057;SDS011;2044;48.692;9.020;2023-04-25T07:36:13;6.47;;;2.37;;
4057;SDS011;2044;48.692;9.020;2023-04-25T07:38:41;2.27;;;2.07;;
4057;SDS011;2044;48.692;9.020;2023-04-25T07:41:08;3.57;;;2.57;;
4057;SDS011;2044;48.692;9.020;2023-04-25T07:43:34;4.07;;;2.00;;
4057;SDS011;2044;48.692;9.020;2023-04-25T07:46:01;9.40;;;1.90;;
4057;SDS011;2044;48.692;9.020;2023-04-25T07:48:28;1.73;;;1.63;;
4057;SDS011;2044;48.692;9.020;2023-04-25T07:50:55;3.30;;;1.90;;
4057;SDS011;2044;48.692;9.020;2023-04-25T07:53:22;4.00;;;1.43;;
4057;SDS011;2044;48.692;9.020;2023-04-25T07:55:50;4.37;;;2.50;;
4057;SDS011;2044;48.692;9.020;2023-04-25T07:58:16;6.53;;;2.73;;
4057;SDS011;2044;48.692;9.020;2023-04-25T08:00:46;3.80;;;2.73;;
4057;SDS011;2044;48.692;9.020;2023-04-25T08:03:13;4.10;;;2.07;;
4057;SDS011;2044;48.692;9.020;2023-04-25T08:05:39;3.80;;;2.73;;
4057;SDS011;2044;48.692;9.020;2023-04-25T08:08:06;4.33;;;2.37;;
4057;SDS011;2044;48.692;9.020;2023-04-25T08:10:33;2.00;;;1.40;;
4057;SDS011;2044;48.692;9.020;2023-04-25T08:13:01;2.57;;;2.13;;
4057;SDS011;2044;48.692;9.020;2023-04-25T08:15:28;2.03;;;1.90;;
4057;SDS011;2044;48.692;9.020;2023-04-25T08:17:55;4.33;;;2.23;;
4057;SDS011;2044;48.692;9.020;2023-04-25T08:20:21;2.57;;;1.93;;
4057;SDS011;2044;48.692;9.020;2023-04-25T08:22:48;3.80;;;2.23;;
4057;SDS011;2044;48.692;9.020;2023-04-25T08:25:15;3.90;;;2.30;;
4057;SDS011;2044;48.692;9.020;2023-04-25T08:27:42;2.90;;;2.03;;
4057;SDS011;2044;48.692;9.020;2023-04-25T08:30:11;4.70;;;2.00;;
4057;SDS011;2044;48.692;9.020;2023-04-25T08:32:38;4.60;;;2.20;;
4057;SDS011;2044;48.692;9.020;2023-04-25T08:35:04;2.50;;;1.70;;
4057;SDS011;2044;48.692;9.020;2023-04-25T08:37:32;4.63;;;1.67;;
4057;SDS011;2044;48.692;9.020;2023-04-25T08:39:58;5.37;;;2.50;;
4057;SDS011;2044;48.692;9.020;2023-04-25T08:42:26;3.67;;;2.37;;
4057;SDS011;2044;48.692;9.020;2023-04-25T08:44:54;3.23;;;1.67;;
4057;SDS011;2044;48.692;9.020;2023-04-25T08:47:22;2.50;;;1.73;;
4057;SDS011;2044;48.692;9.020;2023-04-25T08:49:50;2.80;;;1.63;;
4057;SDS011;2044;48.692;9.020;2023-04-25T08:52:21;2.50;;;1.87;;
4057;SDS011;2044;48.692;9.020;2023-04-25T08:54:49;4.03;;;2.07;;
4057;SDS011;2044;48.692;9.020;2023-04-25T08:57:17;1.87;;;1.77;;
4057;SDS011;2044;48.692;9.020;2023-04-25T08:59:45;1.83;;;1.60;;
4057;SDS011;2044;48.692;9.020;2023-04-25T09:02:13;2.33;;;1.53;;
4057;SDS011;2044;48.692;9.020;2023-04-25T09:04:44;2.37;;;1.90;;
4057;SDS011;2044;48.692;9.020;2023-04-25T09:07:11;6.87;;;2.40;;
4057;SDS011;2044;48.692;9.020;2023-04-25T09:09:40;4.27;;;2.13;;
4057;SDS011;2044;48.692;9.020;2023-04-25T09:12:07;3.70;;;2.80;;
4057;SDS011;2044;48.692;9.020;2023-04-25T09:14:34;2.40;;;1.70;;
4057;SDS011;2044;48.692;9.020;2023-04-25T09:17:01;2.80;;;2.13;;
4057;SDS011;2044;48.692;9.020;2023-04-25T09:19:30;2.83;;;2.50;;
4057;SDS011;2044;48.692;9.020;2023-04-25T09:22:02;3.67;;;1.70;;
4057;SDS011;2044;48.692;9.020;2023-04-25T09:24:31;3.90;;;1.40;;
4057;SDS011;2044;48.692;9.020;2023-04-25T09:27:03;2.23;;;1.20;;
4057;SDS011;2044;48.692;9.020;2023-04-25T09:29:30;5.03;;;2.33;;
4057;SDS011;2044;48.692;9.020;2023-04-25T09:32:10;2.30;;;1.30;;
4057;SDS011;2044;48.692;9.020;2023-04-25T09:34:39;1.60;;;1.40;;
4057;SDS011;2044;48.692;9.020;2023-04-25T09:37:08;2.30;;;1.00;;
4057;SDS011;2044;48.692;9.020;2023-04-25T09:39:35;2.17;;;1.30;;
4057;SDS011;2044;48.692;9.020;2023-04-25T09:42:02;1.97;;;1.67;;
4057;SDS011;2044;48.692;9.020;2023-04-25T09:44:29;0.83;;;0.60;;
4057;SDS011;2044;48.692;9.020;2023-04-25T09:46:56;2.10;;;1.37;;
4057;SDS011;2044;48.692;9.020;2023-04-25T09:49:24;1.40;;;0.60;;
4057;SDS011;2044;48.692;9.020;2023-04-25T09:51:55;0.70;;;0.70;;
4057;SDS011;2044;48.692;9.020;2023-04-25T09:54:24;0.63;;;0.57;;
4057;SDS011;2044;48.692;9.020;2023-04-25T09:56:51;1.00;;;0.60;;
4057;SDS011;2044;48.692;9.020;2023-04-25T09:59:19;1.03;;;0.63;;
4057;SDS011;2044;48.692;9.020;2023-04-25T10:01:48;1.00;;;0.60;;
4057;SDS011;2044;48.692;9.020;2023-04-25T10:04:16;0.90;;;0.80;;
4057;SDS011;2044;48.692;9.020;2023-04-25T10:06:46;0.60;;;0.60;;
4057;SDS011;2044;48.692;9.020;2023-04-25T10:09:15;1.23;;;0.80;;
4057;SDS011;2044;48.692;9.020;2023-04-25T10:11:45;0.90;;;0.60;;
4057;SDS011;2044;48.692;9.020;2023-04-25T10:14:12;2.97;;;0.70;;
4057;SDS011;2044;48.692;9.020;2023-04-25T10:16:40;1.20;;;0.60;;
4057;SDS011;2044;48.692;9.020;2023-04-25T10:19:08;0.70;;;0.50;;
4057;SDS011;2044;48.692;9.020;2023-04-25T10:21:36;0.70;;;0.50;;
4057;SDS011;2044;48.692;9.020;2023-04-25T10:24:06;1.10;;;0.60;;
4057;SDS011;2044;48.692;9.020;2023-04-25T10:26:33;0.80;;;0.80;;
4057;SDS011;2044;48.692;9.020;2023-04-25T10:29:02;0.63;;;0.57;;
4057;SDS011;2044;48.692;9.020;2023-04-25T10:31:30;0.60;;;0.40;;
4057;SDS011;2044;48.692;9.020;2023-04-25T10:33:58;1.10;;;0.87;;
4057;SDS011;2044;48.692;9.020;2023-04-25T10:36:25;1.80;;;0.80;;
4057;SDS011;2044;48.692;9.020;2023-04-25T10:38:58;0.87;;;0.50;;
4057;SDS011;2044;48.692;9.020;2023-04-25T10:41:31;0.80;;;0.50;;
4057;SDS011;2044;48.692;9.020;2023-04-25T10:44:12;0.60;;;0.50;;
4057;SDS011;2044;48.692;9.020;2023-04-25T10:46:40;1.37;;;0.80;;
4057;SDS011;2044;48.692;9.020;2023-04-25T10:49:07;2.17;;;0.70;;
4057;SDS011;2044;48.692;9.020;2023-04-25T10:51:35;0.60;;;0.50;;
4057;SDS011;2044;48.692;9.020;2023-04-25T10:54:04;0.57;;;0.43;;
4057;SDS011;2044;48.692;9.020;2023-04-25T10:56:33;3.40;;;0.60;;
4057;SDS011;2044;48.692;9.020;2023-04-25T10:59:05;0.60;;;0.40;;
4057;SDS011;2044;48.692;9.020;2023-04-25T11:01:39;0.53;;;0.40;;
4057;SDS011;2044;48.692;9.020;2023-04-25T11:04:18;1.50;;;0.87;;
4057;SDS011;2044;48.692;9.020;2023-04-25T11:06:51;0.60;;;0.50;;
4057;SDS011;2044;48.692;9.020;2023-04-25T11:09:28;1.80;;;1.20;;
4057;SDS011;2044;48.692;9.020;2023-04-25T11:11:55;0.87;;;0.70;;
4057;SDS011;2044;48.692;9.020;2023-04-25T11:14:23;1.73;;;0.90;;
4057;SDS011;2044;48.692;9.020;2023-04-25T11:16:53;2.43;;;1.33;;
4057;SDS011;2044;48.692;9.020;2023-04-25T11:19:20;3.03;;;0.93;;
4057;SDS011;2044;48.692;9.020;2023-04-25T11:21:47;0.70;;;0.60;;
4057;SDS011;2044;48.692;9.020;2023-04-25T11:24:15;1.37;;;0.87;;
4057;SDS011;2044;48.692;9.020;2023-04-25T11:26:42;2.40;;;1.43;;
4057;SDS011;2044;48.692;9.020;2023-04-25T11:29:09;0.90;;;0.53;;
4057;SDS011;2044;48.692;9.020;2023-04-25T11:31:36;1.13;;;0.60;;
4057;SDS011;2044;48.692;9.020;2023-04-25T11:34:04;1.43;;;0.90;;
4057;SDS011;2044;48.692;9.020;2023-04-25T11:36:31;1.80;;;1.27;;
4057;SDS011;2044;48.692;9.020;2023-04-25T11:38:58;1.07;;;0.90;;
4057;SDS011;2044;48.692;9.020;2023-04-25T11:41:25;1.87;;;1.30;;
4057;SDS011;2044;48.692;9.020;2023-04-25T11:43:52;1.00;;;0.80;;
4057;SDS011;2044;48.692;9.020;2023-04-25T11:46:19;1.80;;;0.80;;
4057;SDS011;2044;48.692;9.020;2023-04-25T11:48:46;1.23;;;0.80;;
4057;SDS011;2044;48.692;9.020;2023-04-25T11:51:14;1.90;;;1.40;;
4057;SDS011;2044;48.692;9.020;2023-04-25T11:53:41;1.50;;;1.10;;
4057;SDS011;2044;48.692;9.020;2023-04-25T11:56:09;2.03;;;1.27;;
4057;SDS011;2044;48.692;9.020;2023-04-25T12:01:25;1.10;;;0.97;;
4057;SDS011;2044;48.692;9.020;2023-04-25T12:03:52;1.53;;;1.20;;
4057;SDS011;2044;48.692;9.020;2023-04-25T12:06:20;1.57;;;1.10;;
4057;SDS011;2044;48.692;9.020;2023-04-25T12:09:02;1.47;;;1.10;;
4057;SDS011;2044;48.692;9.020;2023-04-25T12:11:30;2.10;;;1.60;;
4057;SDS011;2044;48.692;9.020;2023-04-25T12:14:01;2.43;;;1.60;;
4057;SDS011;2044;48.692;9.020;2023-04-25T12:16:29;1.83;;;1.27;;
4057;SDS011;2044;48.692;9.020;2023-04-25T12:18:56;2.13;;;1.20;;
4057;SDS011;2044;48.692;9.020;2023-04-25T12:21:28;2.30;;;1.53;;
4057;SDS011;2044;48.692;9.020;2023-04-25T12:24:07;2.40;;;1.43;;
4057;SDS011;2044;48.692;9.020;2023-04-25T12:26:51;4.90;;;2.10;;
4057;SDS011;2044;48.692;9.020;2023-04-25T12:29:19;4.20;;;1.77;;
4057;SDS011;2044;48.692;9.020;2023-04-25T12:31:47;3.30;;;2.07;;
4057;SDS011;2044;48.692;9.020;2023-04-25T12:34:14;5.47;;;2.20;;
4057;SDS011;2044;48.692;9.020;2023-04-25T12:36:42;4.50;;;1.97;;
4057;SDS011;2044;48.692;9.020;2023-04-25T12:39:14;5.00;;;2.10;;
4057;SDS011;2044;48.692;9.020;2023-04-25T12:41:41;4.10;;;2.47;;
4057;SDS011;2044;48.692;9.020;2023-04-25T12:44:07;4.47;;;1.87;;
4057;SDS011;2044;48.692;9.020;2023-04-25T12:46:35;5.83;;;2.87;;
4057;SDS011;2044;48.692;9.020;2023-04-25T12:49:01;4.67;;;2.50;;
4057;SDS011;2044;48.692;9.020;2023-04-25T12:51:29;4.07;;;2.30;;
4057;SDS011;2044;48.692;9.020;2023-04-25T12:53:59;5.37;;;2.70;;
4057;SDS011;2044;48.692;9.020;2023-04-25T12:56:25;4.07;;;2.40;;
4057;SDS011;2044;48.692;9.020;2023-04-25T12:58:52;7.83;;;3.77;;
4057;SDS011;2044;48.692;9.020;2023-04-25T13:01:19;8.20;;;2.93;;
4057;SDS011;2044;48.692;9.020;2023-04-25T13:03:46;6.13;;;3.00;;
4057;SDS011;2044;48.692;9.020;2023-04-25T13:06:13;6.30;;;3.10;;
4057;SDS011;2044;48.692;9.020;2023-04-25T13:08:40;5.67;;;3.20;;
4057;SDS011;2044;48.692;9.020;2023-04-25T13:11:08;6.17;;;3.40;;
4057;SDS011;2044;48.692;9.020;2023-04-25T13:13:36;6.53;;;3.43;;
4057;SDS011;2044;48.692;9.020;2023-04-25T13:16:06;5.23;;;2.83;;
4057;SDS011;2044;48.692;9.020;2023-04-25T13:18:33;5.27;;;3.80;;
4057;SDS011;2044;48.692;9.020;2023-04-25T13:21:00;4.47;;;3.47;;
4057;SDS011;2044;48.692;9.020;2023-04-25T13:23:28;5.90;;;4.40;;
4057;SDS011;2044;48.692;9.020;2023-04-25T13:25:55;4.93;;;3.90;;
4057;SDS011;2044;48.692;9.020;2023-04-25T13:28:24;5.90;;;5.10;;
4057;SDS011;2044;48.692;9.020;2023-04-25T13:30:51;6.37;;;5.17;;
4057;SDS011;2044;48.692;9.020;2023-04-25T13:33:18;6.93;;;4.20;;
4057;SDS011;2044;48.692;9.020;2023-04-25T13:35:45;7.50;;;5.37;;
4057;SDS011;2044;48.692;9.020;2023-04-25T13:38:18;8.10;;;7.40;;
4057;SDS011;2044;48.692;9.020;2023-04-25T13:40:45;8.60;;;7.90;;
4057;SDS011;2044;48.692;9.020;2023-04-25T13:43:12;8.03;;;7.27;;
4057;SDS011;2044;48.692;9.020;2023-04-25T13:45:40;7.87;;;7.07;;
4057;SDS011;2044;48.692;9.020;2023-04-25T13:48:07;7.70;;;7.03;;
4057;SDS011;2044;48.692;9.020;2023-04-25T13:50:33;7.30;;;6.70;;
4057;SDS011;2044;48.692;9.020;2023-04-25T13:53:00;5.50;;;5.10;;
4057;SDS011;2044;48.692;9.020;2023-04-25T13:55:27;7.17;;;6.57;;
4057;SDS011;2044;48.692;9.020;2023-04-25T13:57:53;6.93;;;6.50;;
4057;SDS011;2044;48.692;9.020;2023-04-25T14:00:20;7.50;;;6.90;;
4057;SDS011;2044;48.692;9.020;2023-04-25T14:02:48;7.43;;;6.83;;
4057;SDS011;2044;48.692;9.020;2023-04-25T14:05:15;7.50;;;6.80;;
4057;SDS011;2044;48.692;9.020;2023-04-25T14:07:42;7.73;;;7.03;;
4057;SDS011;2044;48.692;9.020;2023-04-25T14:10:09;8.10;;;7.40;;
4057;SDS011;2044;48.692;9.020;2023-04-25T14:12:36;7.93;;;7.40;;
4057;SDS011;2044;48.692;9.020;2023-04-25T14:15:03;8.03;;;7.33;;
4057;SDS011;2044;48.692;9.020;2023-04-25T14:17:31;8.57;;;7.77;;
4057;SDS011;2044;48.692;9.020;2023-04-25T14:19:59;8.30;;;7.70;;
4057;SDS011;2044;48.692;9.020;2023-04-25T14:22:25;7.30;;;6.70;;
4057;SDS011;2044;48.692;9.020;2023-04-25T14:24:52;11.47;;;7.30;;
4057;SDS011;2044;48.692;9.020;2023-04-25T14:27:19;8.33;;;7.83;;
4057;SDS011;2044;48.692;9.020;2023-04-25T14:29:45;7.93;;;7.13;;
4057;SDS011;2044;48.692;9.020;2023-04-25T14:32:12;8.60;;;7.50;;
4057;SDS011;2044;48.692;9.020;2023-04-25T14:34:39;7.17;;;6.50;;
4057;SDS011;2044;48.692;9.020;2023-04-25T14:37:07;6.90;;;6.40;;
4057;SDS011;2044;48.692;9.020;2023-04-25T14:39:34;7.43;;;6.93;;
4057;SDS011;2044;48.692;9.020;2023-04-25T14:42:01;7.13;;;6.67;;
4057;SDS011;2044;48.692;9.020;2023-04-25T14:44:28;6.63;;;6.23;;
4057;SDS011;2044;48.692;9.020;2023-04-25T14:46:55;7.60;;;7.00;;
4057;SDS011;2044;48.692;9.020;2023-04-25T14:49:21;6.90;;;6.30;;
4057;SDS011;2044;48.692;9.020;2023-04-25T14:51:48;7.13;;;6.63;;
4057;SDS011;2044;48.692;9.020;2023-04-25T14:54:17;6.43;;;6.03;;
4057;SDS011;2044;48.692;9.020;2023-04-25T14:56:44;6.20;;;5.77;;
4057;SDS011;2044;48.692;9.020;2023-04-25T14:59:11;6.90;;;6.50;;
4057;SDS011;2044;48.692;9.020;2023-04-25T15:01:37;7.00;;;6.50;;
4057;SDS011;2044;48.692;9.020;2023-04-25T15:04:05;7.03;;;6.57;;
4057;SDS011;2044;48.692;9.020;2023-04-25T15:06:32;7.90;;;7.50;;
4057;SDS011;2044;48.692;9.020;2023-04-25T15:08:59;8.63;;;8.23;;
4057;SDS011;2044;48.692;9.020;2023-04-25T15:11:27;9.00;;;8.50;;
4057;SDS011;2044;48.692;9.020;2023-04-25T15:13:54;8.17;;;7.77;;
4057;SDS011;2044;48.692;9.020;2023-04-25T15:16:21;7.60;;;7.30;;
4057;SDS011;2044;48.692;9.020;2023-04-25T15:18:47;8.20;;;7.90;;
4057;SDS011;2044;48.692;9.020;2023-04-25T15:21:14;8.80;;;8.33;;